createdAt,value
2018-03-17T00:00:08.440Z,100626.81
2018-03-17T00:02:37.441Z,100627.70
2018-03-17T00:05:06.503Z,100624.64
2018-03-17T00:07:35.574Z,100629.12
2018-03-17T00:10:04.638Z,100624.64
2018-03-17T00:12:33.701Z,100631.75
2018-03-17T00:15:03.086Z,100630.89
2018-03-17T00:17:31.953Z,100632.24
2018-03-17T00:20:02.746Z,100636.79
2018-03-17T00:22:31.834Z,100633.09
2018-03-17T00:25:00.894Z,100634.52
2018-03-17T00:27:29.985Z,100636.43
2018-03-17T00:29:59.070Z,100636.36
2018-03-17T00:32:28.129Z,100635.61
2018-03-17T00:34:57.193Z,100631.06
2018-03-17T00:37:26.270Z,100632.80
2018-03-17T00:39:55.325Z,100632.48
2018-03-17T00:42:24.374Z,100630.30
2018-03-17T00:44:53.774Z,100634.84
2018-03-17T00:47:22.833Z,100630.80
2018-03-17T00:49:51.885Z,100636.09
2018-03-17T00:52:20.986Z,100632.12
2018-03-17T00:54:50.041Z,100635.31
2018-03-17T00:57:19.101Z,100642.16
2018-03-17T00:59:48.452Z,100639.03
2018-03-17T01:02:17.502Z,100642.66
2018-03-17T01:04:46.571Z,100645.84
2018-03-17T01:07:15.695Z,100639.43
2018-03-17T01:09:44.871Z,100638.08
2018-03-17T01:12:13.927Z,100639.95
2018-03-17T01:14:43.336Z,100643.41
2018-03-17T01:17:12.225Z,100635.91
2018-03-17T01:19:41.322Z,100648.88
2018-03-17T01:22:10.425Z,100650.49
2018-03-17T01:24:39.481Z,100639.56
2018-03-17T01:27:08.535Z,100642.06
2018-03-17T01:29:37.624Z,100637.95
2018-03-17T01:32:06.698Z,100627.95
2018-03-17T01:34:35.754Z,100624.33
2018-03-17T01:37:05.097Z,100623.20
2018-03-17T01:39:34.145Z,100620.18
2018-03-17T01:42:03.240Z,100617.91
2018-03-17T01:44:32.309Z,100611.84
2018-03-17T01:47:01.371Z,100602.90
2018-03-17T01:49:30.431Z,100607.38
2018-03-17T01:51:59.506Z,100598.85
2018-03-17T01:54:31.761Z,100606.75
2018-03-17T01:57:01.229Z,100604.55
2018-03-17T01:59:30.302Z,100606.66
2018-03-17T02:01:59.361Z,100609.28
2018-03-17T02:04:28.809Z,100610.14
2018-03-17T02:06:57.874Z,100604.31
2018-03-17T02:09:26.929Z,100600.70
2018-03-17T02:11:56.301Z,100592.77
2018-03-17T02:14:25.367Z,100590.33
2018-03-17T02:16:54.437Z,100590.33
2018-03-17T02:19:24.004Z,100599.02
2018-03-17T02:21:53.060Z,100597.80
2018-03-17T02:24:22.119Z,100591.81
2018-03-17T02:26:51.214Z,100586.28
2018-03-17T02:29:20.269Z,100589.97
2018-03-17T02:31:49.322Z,100583.65
2018-03-17T02:34:18.782Z,100583.31
2018-03-17T02:36:47.852Z,100590.23
2018-03-17T02:39:16.903Z,100585.09
2018-03-17T02:41:45.986Z,100583.39
2018-03-17T02:44:15.053Z,100579.27
2018-03-17T02:46:44.118Z,100579.20
2018-03-17T02:49:13.554Z,100577.33
2018-03-17T02:51:42.614Z,100587.70
2018-03-17T02:54:11.663Z,100579.59
2018-03-17T02:56:41.040Z,100578.52
2018-03-17T02:59:09.862Z,100574.44
2018-03-17T03:01:38.931Z,100572.59
2018-03-17T03:04:08.341Z,100576.25
2018-03-17T03:06:37.406Z,100572.83
2018-03-17T03:09:07.250Z,100563.19
2018-03-17T03:11:36.632Z,100570.94
2018-03-17T03:14:05.689Z,100566.17
2018-03-17T03:16:34.758Z,100577.86
2018-03-17T03:19:04.225Z,100580.13
2018-03-17T03:21:33.286Z,100580.52
2018-03-17T03:24:02.355Z,100566.37
2018-03-17T03:26:31.445Z,100582.20
2018-03-17T03:29:00.504Z,100577.75
2018-03-17T03:31:29.557Z,100575.39
2018-03-17T03:33:59.003Z,100578.48
2018-03-17T03:36:28.058Z,100585.09
2018-03-17T03:38:57.118Z,100573.54
2018-03-17T03:41:26.040Z,100569.19
2018-03-17T03:43:55.167Z,100570.02
2018-03-17T03:46:24.225Z,100580.81
2018-03-17T03:48:53.302Z,100587.30
2018-03-17T03:51:22.359Z,100576.92
2018-03-17T03:53:51.414Z,100578.77
2018-03-17T03:56:20.849Z,100587.66
2018-03-17T03:58:49.900Z,100578.21
2018-03-17T04:01:18.989Z,100583.05
2018-03-17T04:03:48.524Z,100578.51
2018-03-17T04:06:17.582Z,100583.84
2018-03-17T04:08:46.640Z,100584.17
2018-03-17T04:11:15.718Z,100581.78
2018-03-17T04:13:44.774Z,100576.71
2018-03-17T04:16:13.833Z,100587.44
2018-03-17T04:18:43.225Z,100585.23
2018-03-17T04:21:12.099Z,100590.20
2018-03-17T04:23:41.162Z,100586.22
2018-03-17T04:26:10.614Z,100585.80
2018-03-17T04:28:39.519Z,100583.59
2018-03-17T04:31:08.529Z,100586.52
2018-03-17T04:33:37.916Z,100591.52
2018-03-17T04:36:06.981Z,100583.43
2018-03-17T04:38:36.054Z,100600.11
2018-03-17T04:41:05.502Z,100591.82
2018-03-17T04:43:34.557Z,100587.55
2018-03-17T04:46:03.609Z,100599.58
2018-03-17T04:48:32.982Z,100607.34
2018-03-17T04:51:02.043Z,100600.83
2018-03-17T04:53:31.110Z,100598.56
2018-03-17T04:56:00.593Z,100596.62
2018-03-17T04:58:29.657Z,100599.37
2018-03-17T05:00:58.721Z,100602.58
2018-03-17T05:03:27.977Z,100597.01
2018-03-17T05:05:57.123Z,100602.83
2018-03-17T05:08:26.193Z,100602.89
2018-03-17T05:10:55.662Z,100609.97
2018-03-17T05:13:24.726Z,100594.25
2018-03-17T05:15:53.790Z,100598.09
2018-03-17T05:18:22.861Z,100601.61
2018-03-17T05:20:51.914Z,100603.13
2018-03-17T05:23:20.966Z,100603.72
2018-03-17T05:25:49.926Z,100596.11
2018-03-17T05:28:18.991Z,100595.63
2018-03-17T05:30:48.057Z,100597.98
2018-03-17T05:33:17.150Z,100586.77
2018-03-17T05:35:46.224Z,100596.70
2018-03-17T05:38:15.277Z,100597.63
2018-03-17T05:40:44.695Z,100596.86
2018-03-17T05:43:13.820Z,100594.08
2018-03-17T05:45:43.050Z,100592.33
2018-03-17T05:48:12.905Z,100589.86
2018-03-17T05:50:41.967Z,100589.14
2018-03-17T05:53:11.019Z,100589.63
2018-03-17T05:55:40.516Z,100595.09
2018-03-17T05:58:09.566Z,100593.84
2018-03-17T06:00:38.533Z,100595.09
2018-03-17T06:03:07.901Z,100596.96
2018-03-17T06:05:36.982Z,100590.88
2018-03-17T06:08:06.069Z,100580.16
2018-03-17T06:10:35.484Z,100582.42
2018-03-17T06:13:04.554Z,100587.26
2018-03-17T06:15:50.557Z,100580.48
2018-03-17T06:18:19.622Z,100567.10
2018-03-17T06:20:48.689Z,100574.47
2018-03-17T06:23:17.787Z,100578.11
2018-03-17T06:25:46.845Z,100569.80
2018-03-17T06:28:15.898Z,100574.47
2018-03-17T06:30:45.028Z,100581.80
2018-03-17T06:33:14.250Z,100574.69
2018-03-17T06:35:43.311Z,100584.48
2018-03-17T06:38:13.040Z,100569.59
2018-03-17T06:40:42.103Z,100575.48
2018-03-17T06:43:11.168Z,100573.70
2018-03-17T06:45:40.534Z,100569.89
2018-03-17T06:48:09.626Z,100575.80
2018-03-17T06:50:38.690Z,100567.62
2018-03-17T06:53:07.781Z,100573.86
2018-03-17T06:55:36.837Z,100579.75
2018-03-17T06:58:05.891Z,100588.53
2018-03-17T07:00:35.348Z,100588.79
2018-03-17T07:03:04.578Z,100575.87
2018-03-17T07:05:33.634Z,100586.16
2018-03-17T07:08:03.114Z,100579.58
2018-03-17T07:10:32.174Z,100584.18
2018-03-17T07:13:01.246Z,100584.97
2018-03-17T07:15:30.317Z,100583.20
2018-03-17T07:17:59.374Z,100578.82
2018-03-17T07:20:28.439Z,100589.51
2018-03-17T07:22:57.771Z,100585.47
2018-03-17T07:25:26.854Z,100581.09
2018-03-17T07:27:56.118Z,100593.71
2018-03-17T07:30:25.200Z,100588.66
2018-03-17T07:32:54.259Z,100591.44
2018-03-17T07:35:23.314Z,100585.53
2018-03-17T07:37:52.780Z,100586.91
2018-03-17T07:40:21.854Z,100586.48
2018-03-17T07:42:50.910Z,100584.83
2018-03-17T07:45:20.047Z,100593.87
2018-03-17T07:47:49.695Z,100590.52
2018-03-17T07:50:19.062Z,100592.19
2018-03-17T07:52:48.772Z,100595.38
2018-03-17T07:55:17.878Z,100595.34
2018-03-17T07:57:47.253Z,100585.91
2018-03-17T08:00:17.399Z,100589.98
2018-03-17T08:02:47.232Z,100591.49
2018-03-17T08:05:17.184Z,100590.20
2018-03-17T08:07:46.859Z,100594.19
2018-03-17T08:10:16.773Z,100602.89
2018-03-17T08:12:46.782Z,100604.38
2018-03-17T08:15:16.496Z,100605.46
2018-03-17T08:17:45.551Z,100599.98
2018-03-17T08:20:14.606Z,100606.16
2018-03-17T08:22:43.691Z,100601.62
2018-03-17T08:25:13.358Z,100598.77
2018-03-17T08:27:42.456Z,100595.50
2018-03-17T08:30:11.535Z,100600.07
2018-03-17T08:32:40.595Z,100592.25
2018-03-17T08:35:09.655Z,100588.86
2018-03-17T08:37:39.025Z,100586.66
2018-03-17T08:40:08.100Z,100583.11
2018-03-17T08:42:37.162Z,100583.31
2018-03-17T08:45:06.247Z,100597.70
2018-03-17T08:47:35.303Z,100589.87
2018-03-17T08:50:04.366Z,100590.91
2018-03-17T08:52:33.441Z,100593.66
2018-03-17T08:55:02.503Z,100604.61
2018-03-17T08:57:31.580Z,100595.59
2018-03-17T09:00:00.961Z,100595.94
2018-03-17T09:02:30.030Z,100601.91
2018-03-17T09:04:59.097Z,100589.36
2018-03-17T09:07:28.186Z,100580.77
2018-03-17T09:09:57.242Z,100584.03
2018-03-17T09:12:26.318Z,100585.84
2018-03-17T09:14:55.402Z,100591.22
2018-03-17T09:17:24.563Z,100596.03
2018-03-17T09:19:53.622Z,100584.88
2018-03-17T09:22:23.050Z,100591.62
2018-03-17T09:24:52.108Z,100584.45
2018-03-17T09:27:21.170Z,100597.38
2018-03-17T09:29:50.245Z,100595.27
2018-03-17T09:32:19.150Z,100589.69
2018-03-17T09:34:48.198Z,100597.59
2018-03-17T09:37:17.454Z,100583.14
2018-03-17T09:39:46.505Z,100583.53
2018-03-17T09:42:15.581Z,100584.81
2018-03-17T09:44:45.002Z,100588.92
2018-03-17T09:47:14.073Z,100578.17
2018-03-17T09:49:43.134Z,100585.27
2018-03-17T09:52:12.630Z,100586.55
2018-03-17T09:54:41.851Z,100589.84
2018-03-17T09:57:10.841Z,100583.63
2018-03-17T09:59:39.929Z,100586.13
2018-03-17T10:02:09.004Z,100590.19
2018-03-17T10:04:38.095Z,100585.00
2018-03-17T10:07:07.169Z,100583.91
2018-03-17T10:09:36.229Z,100590.43
2018-03-17T10:12:05.283Z,100580.30
2018-03-17T10:14:34.359Z,100585.30
2018-03-17T10:17:03.422Z,100589.46
2018-03-17T10:19:32.485Z,100573.17
2018-03-17T10:22:01.950Z,100578.19
2018-03-17T10:24:31.009Z,100578.63
2018-03-17T10:27:00.066Z,100567.41
2018-03-17T10:29:29.194Z,100561.89
2018-03-17T10:31:58.440Z,100575.98
2018-03-17T10:34:27.508Z,100580.89
2018-03-17T10:36:56.598Z,100564.66
2018-03-17T10:39:25.659Z,100556.20
2018-03-17T10:41:54.758Z,100563.03
2018-03-17T10:44:23.846Z,100551.08
2018-03-17T10:46:52.909Z,100555.45
2018-03-17T10:49:22.297Z,100559.64
2018-03-17T10:51:51.823Z,100573.22
2018-03-17T10:54:21.019Z,100558.67
2018-03-17T10:56:50.094Z,100545.53
2018-03-17T10:59:19.022Z,100542.61
2018-03-17T11:01:47.897Z,100549.25
2018-03-17T11:04:16.971Z,100551.12
2018-03-17T11:06:46.376Z,100551.55
2018-03-17T11:09:15.448Z,100538.77
2018-03-17T11:11:44.371Z,100537.58
2018-03-17T11:14:13.456Z,100528.56
2018-03-17T11:16:42.557Z,100525.48
2018-03-17T11:19:11.623Z,100534.72
2018-03-17T11:21:40.722Z,100533.20
2018-03-17T11:24:09.786Z,100530.87
2018-03-17T11:26:39.149Z,100532.05
2018-03-17T11:29:08.051Z,100521.45
2018-03-17T11:31:37.106Z,100535.20
2018-03-17T11:34:06.158Z,100533.59
2018-03-17T11:36:35.511Z,100540.70
2018-03-17T11:39:04.081Z,100544.41
2018-03-17T11:41:32.951Z,100535.69
2018-03-17T11:44:02.386Z,100547.31
2018-03-17T11:46:31.456Z,100541.02
2018-03-17T11:49:00.537Z,100541.75
2018-03-17T11:51:30.106Z,100550.20
2018-03-17T11:53:59.166Z,100555.60
2018-03-17T11:56:28.219Z,100530.70
2018-03-17T11:58:57.738Z,100533.89
2018-03-17T12:01:26.794Z,100523.40
2018-03-17T12:03:55.873Z,100525.92
2018-03-17T12:06:25.294Z,100530.64
2018-03-17T12:08:54.342Z,100520.50
2018-03-17T12:11:23.415Z,100533.73
2018-03-17T12:13:52.506Z,100517.65
2018-03-17T12:16:21.597Z,100514.59
2018-03-17T12:18:50.665Z,100505.37
2018-03-17T12:21:19.759Z,100500.22
2018-03-17T12:23:48.844Z,100497.30
2018-03-17T12:26:17.922Z,100500.31
2018-03-17T12:28:47.035Z,100500.84
2018-03-17T12:31:16.102Z,100485.89
2018-03-17T12:33:45.153Z,100484.53
2018-03-17T12:36:14.243Z,100481.83
2018-03-17T12:38:43.331Z,100479.06
2018-03-17T12:41:12.425Z,100479.32
2018-03-17T12:43:41.527Z,100463.03
2018-03-17T12:46:10.619Z,100466.17
2018-03-17T12:48:39.704Z,100475.94
2018-03-17T12:51:08.788Z,100467.52
2018-03-17T12:53:37.888Z,100471.50
2018-03-17T12:56:08.061Z,100482.45
2018-03-17T12:58:37.128Z,100474.18
2018-03-17T13:01:06.182Z,100476.54
2018-03-17T13:03:35.304Z,100474.86
2018-03-17T13:06:04.364Z,100481.63
2018-03-17T13:08:33.427Z,100473.42
2018-03-17T13:11:03.296Z,100470.66
2018-03-17T13:13:32.392Z,100477.41
2018-03-17T13:16:01.460Z,100465.00
2018-03-17T13:18:30.553Z,100466.19
2018-03-17T13:20:59.610Z,100457.81
2018-03-17T13:23:29.246Z,100475.48
2018-03-17T13:25:58.339Z,100470.05
2018-03-17T13:28:28.910Z,100474.78
2018-03-17T13:30:58.010Z,100483.37
2018-03-17T13:33:27.214Z,100467.80
2018-03-17T13:36:08.222Z,100473.26
2018-03-17T13:38:37.304Z,100475.39
2018-03-17T13:41:06.119Z,100474.44
2018-03-17T13:43:35.549Z,100481.61
2018-03-17T13:46:04.376Z,100475.02
2018-03-17T13:48:33.258Z,100481.94
2018-03-17T13:51:02.545Z,100473.17
2018-03-17T13:53:31.604Z,100477.58
2018-03-17T13:56:06.117Z,100477.58
2018-03-17T13:58:35.284Z,100485.81
2018-03-17T14:01:04.529Z,100482.66
2018-03-17T14:03:33.646Z,100474.69
2018-03-17T14:06:02.540Z,100474.73
2018-03-17T14:08:31.602Z,100469.47
2018-03-17T14:11:00.948Z,100470.81
2018-03-17T14:13:30.148Z,100474.97
2018-03-17T14:15:59.215Z,100487.02
2018-03-17T14:18:28.628Z,100478.18
2018-03-17T14:20:57.685Z,100477.29
2018-03-17T14:23:26.738Z,100469.05
2018-03-17T14:25:55.822Z,100474.28
2018-03-17T14:28:25.075Z,100474.22
2018-03-17T14:30:54.165Z,100476.91
2018-03-17T14:33:23.389Z,100470.83
2018-03-17T14:35:52.883Z,100471.31
2018-03-17T14:38:21.938Z,100466.88
2018-03-17T14:40:51.422Z,100474.84
2018-03-17T14:43:20.517Z,100473.24
2018-03-17T14:45:49.579Z,100471.98
2018-03-17T14:48:19.000Z,100475.05
2018-03-17T14:50:48.067Z,100468.88
2018-03-17T14:53:17.241Z,100459.49
2018-03-17T14:55:46.904Z,100467.63
2018-03-17T14:58:15.961Z,100462.03
2018-03-17T15:00:45.119Z,100464.41
2018-03-17T15:03:14.199Z,100464.48
2018-03-17T15:05:43.254Z,100465.83
2018-03-17T15:08:12.314Z,100469.05
2018-03-17T15:10:41.697Z,100473.64
2018-03-17T15:13:10.764Z,100469.18
2018-03-17T15:15:39.770Z,100472.64
2018-03-17T15:18:09.237Z,100467.84
2018-03-17T15:20:38.290Z,100464.72
2018-03-17T15:23:07.358Z,100454.06
2018-03-17T15:25:36.443Z,100462.69
2018-03-17T15:28:05.530Z,100457.86
2018-03-17T15:30:34.588Z,100454.05
2018-03-17T15:33:03.680Z,100450.59
2018-03-17T15:35:32.771Z,100454.13
2018-03-17T15:38:01.825Z,100449.32
2018-03-17T15:40:30.943Z,100458.33
2018-03-17T15:43:00.001Z,100448.34
2018-03-17T15:45:29.796Z,100450.55
2018-03-17T15:47:58.898Z,100449.00
2018-03-17T15:50:27.960Z,100450.55
2018-03-17T15:52:57.026Z,100456.53
2018-03-17T15:55:26.108Z,100465.83
2018-03-17T15:57:55.163Z,100460.02
2018-03-17T16:00:24.217Z,100458.59
2018-03-17T16:02:53.307Z,100462.45
2018-03-17T16:05:22.380Z,100439.96
2018-03-17T16:07:51.440Z,100450.41
2018-03-17T16:10:20.571Z,100457.22
2018-03-17T16:12:49.642Z,100459.42
2018-03-17T16:15:18.706Z,100451.50
2018-03-17T16:17:47.782Z,100452.91
2018-03-17T16:20:16.844Z,100454.27
2018-03-17T16:22:45.907Z,100452.78
2018-03-17T16:25:15.130Z,100454.63
2018-03-17T16:27:44.237Z,100456.14
2018-03-17T16:30:13.332Z,100466.16
2018-03-17T16:32:42.402Z,100466.33
2018-03-17T16:35:11.469Z,100468.56
2018-03-17T16:37:40.536Z,100473.19
2018-03-17T16:40:10.096Z,100464.61
2018-03-17T16:42:39.154Z,100467.41
2018-03-17T16:45:08.209Z,100472.27
2018-03-17T16:47:37.591Z,100469.58
2018-03-17T16:50:06.647Z,100470.06
2018-03-17T16:52:35.701Z,100461.59
2018-03-17T16:55:04.783Z,100467.11
2018-03-17T16:57:33.850Z,100468.55
2018-03-17T17:00:02.814Z,100473.88
2018-03-17T17:02:31.715Z,100476.15
2018-03-17T17:05:00.608Z,100484.30
2018-03-17T17:07:29.674Z,100483.31
2018-03-17T17:09:58.757Z,100478.05
2018-03-17T17:12:27.846Z,100487.98
2018-03-17T17:14:56.718Z,100487.98
2018-03-17T17:17:25.853Z,100489.36
2018-03-17T17:19:55.047Z,100486.95
2018-03-17T17:22:24.104Z,100495.53
2018-03-17T17:24:53.183Z,100485.17
2018-03-17T17:27:22.318Z,100493.78
2018-03-17T17:29:51.385Z,100489.38
2018-03-17T17:32:20.460Z,100490.77
2018-03-17T17:34:49.516Z,100503.94
2018-03-17T17:37:18.581Z,100483.11
2018-03-17T17:39:47.673Z,100497.13
2018-03-17T17:42:16.737Z,100491.41
2018-03-17T17:44:45.790Z,100497.78
2018-03-17T17:47:14.871Z,100503.88
2018-03-17T17:49:43.940Z,100508.92
2018-03-17T17:52:12.994Z,100515.63
2018-03-17T17:54:41.839Z,100513.40
2018-03-17T17:57:10.896Z,100516.52
2018-03-17T17:59:39.969Z,100513.09
2018-03-17T18:02:09.225Z,100518.09
2018-03-17T18:04:38.290Z,100516.31
2018-03-17T18:07:07.349Z,100524.55
2018-03-17T18:09:36.425Z,100528.02
2018-03-17T18:12:05.478Z,100517.73
2018-03-17T18:14:34.530Z,100533.34
2018-03-17T18:17:04.224Z,100540.69
2018-03-17T18:19:33.287Z,100541.22
2018-03-17T18:22:02.339Z,100552.42
2018-03-17T18:24:31.426Z,100536.31
2018-03-17T18:27:00.487Z,100541.80
2018-03-17T18:29:29.567Z,100538.25
2018-03-17T18:31:58.642Z,100551.78
2018-03-17T18:34:27.710Z,100550.89
2018-03-17T18:36:56.764Z,100552.44
2018-03-17T18:39:25.848Z,100555.48
2018-03-17T18:41:54.910Z,100531.31
2018-03-17T18:44:23.969Z,100538.90
2018-03-17T18:46:53.141Z,100536.36
2018-03-17T18:49:22.208Z,100545.70
2018-03-17T18:51:51.271Z,100548.00
2018-03-17T18:54:20.374Z,100556.50
2018-03-17T18:56:49.441Z,100549.41
2018-03-17T18:59:18.500Z,100557.06
2018-03-17T19:01:47.574Z,100559.69
2018-03-17T19:04:16.690Z,100565.63
2018-03-17T19:06:45.744Z,100539.13
2018-03-17T19:09:14.834Z,100574.08
2018-03-17T19:11:43.886Z,100550.20
2018-03-17T19:14:12.971Z,100558.50
2018-03-17T19:16:42.054Z,100551.77
2018-03-17T19:19:11.132Z,100544.97
2018-03-17T19:21:40.206Z,100550.36
2018-03-17T19:24:09.288Z,100550.84
2018-03-17T19:26:38.354Z,100556.20
2018-03-17T19:29:07.442Z,100554.39
2018-03-17T19:31:36.513Z,100563.89
2018-03-17T19:34:05.578Z,100553.54
2018-03-17T19:36:34.640Z,100553.54
2018-03-17T19:39:03.295Z,100563.95
2018-03-17T19:41:32.361Z,100561.20
2018-03-17T19:44:01.498Z,100561.25
2018-03-17T19:46:30.580Z,100558.56
2018-03-17T19:48:59.669Z,100570.19
2018-03-17T19:51:28.726Z,100567.92
2018-03-17T19:53:57.818Z,100566.09
2018-03-17T19:56:26.866Z,100564.87
2018-03-17T19:58:55.914Z,100565.23
2018-03-17T20:01:25.070Z,100554.52
2018-03-17T20:03:54.307Z,100558.56
2018-03-17T20:06:23.443Z,100572.83
2018-03-17T20:08:52.530Z,100576.56
2018-03-17T20:11:21.398Z,100572.52
2018-03-17T20:13:50.280Z,100573.96
2018-03-17T20:16:19.382Z,100583.97
2018-03-17T20:18:48.635Z,100591.99
2018-03-17T20:21:17.730Z,100585.23
2018-03-17T20:23:47.338Z,100591.99
2018-03-17T20:26:16.394Z,100592.55
2018-03-17T20:28:45.457Z,100600.08
2018-03-17T20:31:15.174Z,100593.34
2018-03-17T20:33:44.230Z,100581.22
2018-03-17T20:36:13.282Z,100591.11
2018-03-17T20:38:42.378Z,100584.83
2018-03-17T20:41:11.447Z,100599.77
2018-03-17T20:43:40.508Z,100600.26
2018-03-17T20:46:09.914Z,100611.41
2018-03-17T20:48:38.970Z,100605.95
2018-03-17T20:51:08.026Z,100612.81
2018-03-17T20:53:37.390Z,100610.64
2018-03-17T20:56:06.445Z,100616.45
2018-03-17T20:58:35.495Z,100619.20
2018-03-17T21:01:04.588Z,100627.72
2018-03-17T21:03:33.647Z,100626.43
2018-03-17T21:06:02.542Z,100633.47
2018-03-17T21:08:31.628Z,100629.06
2018-03-17T21:11:00.930Z,100629.28
2018-03-17T21:13:30.150Z,100624.23
2018-03-17T21:15:59.584Z,100626.25
2018-03-17T21:18:28.643Z,100629.73
2018-03-17T21:20:57.711Z,100633.28
2018-03-17T21:23:27.162Z,100628.66
2018-03-17T21:25:56.214Z,100633.55
2018-03-17T21:28:25.294Z,100629.58
2018-03-17T21:30:54.753Z,100617.95
2018-03-17T21:33:23.593Z,100619.23
2018-03-17T21:35:52.667Z,100620.64
2018-03-17T21:38:22.047Z,100613.78
2018-03-17T21:40:51.169Z,100636.66
2018-03-17T21:43:20.389Z,100629.36
2018-03-17T21:45:49.836Z,100635.52
2018-03-17T21:48:18.903Z,100635.42
2018-03-17T21:50:47.962Z,100628.06
2018-03-17T21:53:17.443Z,100643.38
2018-03-17T21:55:46.519Z,100639.31
2018-03-17T21:58:15.584Z,100641.52
2018-03-17T22:00:45.057Z,100639.67
2018-03-17T22:03:14.294Z,100631.59
2018-03-17T22:05:43.433Z,100651.25
2018-03-17T22:08:12.801Z,100645.86
2018-03-17T22:10:41.858Z,100648.03
2018-03-17T22:13:10.922Z,100643.72
2018-03-17T22:15:40.306Z,100646.07
2018-03-17T22:18:09.357Z,100640.16
2018-03-17T22:20:38.433Z,100642.70
2018-03-17T22:23:07.797Z,100654.34
2018-03-17T22:25:36.864Z,100651.25
2018-03-17T22:28:05.921Z,100648.55
2018-03-17T22:30:35.389Z,100649.63
2018-03-17T22:33:04.446Z,100645.00
2018-03-17T22:35:33.505Z,100644.05
2018-03-17T22:38:02.830Z,100642.27
2018-03-17T22:40:31.890Z,100646.68
2018-03-17T22:43:00.945Z,100642.58
2018-03-17T22:45:30.322Z,100636.27
2018-03-17T22:47:59.378Z,100640.16
2018-03-17T22:50:28.438Z,100641.50
2018-03-17T22:52:57.863Z,100644.27
2018-03-17T22:55:26.920Z,100647.78
2018-03-17T22:57:56.067Z,100644.20
2018-03-17T23:00:25.150Z,100662.11
2018-03-17T23:02:54.260Z,100649.16
2018-03-17T23:05:23.349Z,100657.58
2018-03-17T23:07:52.422Z,100647.29
2018-03-17T23:10:21.478Z,100654.82
2018-03-17T23:12:50.752Z,100651.20
2018-03-17T23:15:19.857Z,100654.67
2018-03-17T23:17:49.126Z,100653.81
2018-03-17T23:20:18.187Z,100657.52
2018-03-17T23:22:47.265Z,100651.33
2018-03-17T23:25:16.325Z,100656.56
2018-03-17T23:27:45.386Z,100658.56
2018-03-17T23:30:14.510Z,100654.95
2018-03-17T23:32:43.381Z,100661.28
2018-03-17T23:35:12.446Z,100655.38
2018-03-17T23:37:41.872Z,100659.94
2018-03-17T23:40:10.734Z,100659.51
2018-03-17T23:42:39.785Z,100655.13
2018-03-17T23:45:08.862Z,100661.50
2018-03-17T23:47:37.735Z,100657.55
2018-03-17T23:50:06.614Z,100658.47
2018-03-17T23:52:35.806Z,100667.41
2018-03-17T23:55:04.693Z,100662.02
2018-03-17T23:57:33.757Z,100670.44
